sensor_id;sensor_type;location;lat;lon;timestamp;P1;durP1;ratioP1;P2;durP2;ratioP2
20699;SDS011;10511;51.232;9.420;2024-02-23T00:02:12;0.90;;;0.90;;
20699;SDS011;10511;51.232;9.420;2024-02-23T00:04:39;0.90;;;0.90;;
20699;SDS011;10511;51.232;9.420;2024-02-23T00:07:08;1.00;;;1.00;;
20699;SDS011;10511;51.232;9.420;2024-02-23T00:09:35;1.00;;;1.00;;
20699;SDS011;10511;51.232;9.420;2024-02-23T00:12:02;1.00;;;1.00;;
20699;SDS011;10511;51.232;9.420;2024-02-23T00:14:29;1.00;;;1.00;;
20699;SDS011;10511;51.232;9.420;2024-02-23T00:16:57;1.10;;;1.10;;
20699;SDS011;10511;51.232;9.420;2024-02-23T00:19:26;0.93;;;0.93;;
20699;SDS011;10511;51.232;9.420;2024-02-23T00:21:53;0.93;;;0.93;;
20699;SDS011;10511;51.232;9.420;2024-02-23T00:24:21;1.00;;;1.00;;
20699;SDS011;10511;51.232;9.420;2024-02-23T00:26:48;1.00;;;1.00;;
20699;SDS011;10511;51.232;9.420;2024-02-23T00:29:16;1.00;;;1.00;;
20699;SDS011;10511;51.232;9.420;2024-02-23T00:31:43;1.00;;;1.00;;
20699;SDS011;10511;51.232;9.420;2024-02-23T00:34:10;1.00;;;1.00;;
20699;SDS011;10511;51.232;9.420;2024-02-23T00:36:38;1.10;;;1.10;;
20699;SDS011;10511;51.232;9.420;2024-02-23T00:39:05;1.17;;;1.17;;
20699;SDS011;10511;51.232;9.420;2024-02-23T00:41:34;1.00;;;1.00;;
20699;SDS011;10511;51.232;9.420;2024-02-23T00:44:01;1.00;;;1.00;;
20699;SDS011;10511;51.232;9.420;2024-02-23T00:46:28;0.90;;;0.90;;
20699;SDS011;10511;51.232;9.420;2024-02-23T00:48:55;1.00;;;1.00;;
20699;SDS011;10511;51.232;9.420;2024-02-23T00:51:22;1.00;;;1.00;;
20699;SDS011;10511;51.232;9.420;2024-02-23T00:53:49;1.00;;;1.00;;
20699;SDS011;10511;51.232;9.420;2024-02-23T00:56:16;1.10;;;1.10;;
20699;SDS011;10511;51.232;9.420;2024-02-23T00:58:44;1.17;;;1.17;;
20699;SDS011;10511;51.232;9.420;2024-02-23T01:01:11;1.10;;;1.10;;
20699;SDS011;10511;51.232;9.420;2024-02-23T01:03:37;1.00;;;1.00;;
20699;SDS011;10511;51.232;9.420;2024-02-23T01:06:04;1.10;;;1.10;;
20699;SDS011;10511;51.232;9.420;2024-02-23T01:08:31;1.10;;;1.10;;
20699;SDS011;10511;51.232;9.420;2024-02-23T01:10:58;1.00;;;1.00;;
20699;SDS011;10511;51.232;9.420;2024-02-23T01:13:25;1.10;;;1.10;;
20699;SDS011;10511;51.232;9.420;2024-02-23T01:15:53;1.10;;;1.10;;
20699;SDS011;10511;51.232;9.420;2024-02-23T01:18:20;1.10;;;1.10;;
20699;SDS011;10511;51.232;9.420;2024-02-23T01:20:47;1.10;;;1.10;;
20699;SDS011;10511;51.232;9.420;2024-02-23T01:23:14;1.27;;;1.27;;
20699;SDS011;10511;51.232;9.420;2024-02-23T01:25:40;1.20;;;1.20;;
20699;SDS011;10511;51.232;9.420;2024-02-23T01:28:07;1.10;;;1.10;;
20699;SDS011;10511;51.232;9.420;2024-02-23T01:30:34;1.17;;;1.17;;
20699;SDS011;10511;51.232;9.420;2024-02-23T01:33:02;1.20;;;1.20;;
20699;SDS011;10511;51.232;9.420;2024-02-23T01:35:29;1.20;;;1.20;;
20699;SDS011;10511;51.232;9.420;2024-02-23T01:37:56;1.10;;;1.10;;
20699;SDS011;10511;51.232;9.420;2024-02-23T01:40:23;1.27;;;1.27;;
20699;SDS011;10511;51.232;9.420;2024-02-23T01:42:59;1.20;;;1.20;;
20699;SDS011;10511;51.232;9.420;2024-02-23T01:45:27;1.20;;;1.20;;
20699;SDS011;10511;51.232;9.420;2024-02-23T01:47:54;1.20;;;1.20;;
20699;SDS011;10511;51.232;9.420;2024-02-23T01:50:22;1.13;;;1.13;;
20699;SDS011;10511;51.232;9.420;2024-02-23T01:52:49;1.30;;;1.30;;
20699;SDS011;10511;51.232;9.420;2024-02-23T01:55:17;1.10;;;1.10;;
20699;SDS011;10511;51.232;9.420;2024-02-23T01:57:44;1.20;;;1.20;;
20699;SDS011;10511;51.232;9.420;2024-02-23T02:00:13;1.13;;;1.13;;
20699;SDS011;10511;51.232;9.420;2024-02-23T02:02:42;1.10;;;1.10;;
20699;SDS011;10511;51.232;9.420;2024-02-23T02:05:09;1.10;;;1.10;;
20699;SDS011;10511;51.232;9.420;2024-02-23T02:07:38;1.10;;;1.10;;
20699;SDS011;10511;51.232;9.420;2024-02-23T02:10:08;1.30;;;1.30;;
20699;SDS011;10511;51.232;9.420;2024-02-23T02:12:35;1.20;;;1.20;;
20699;SDS011;10511;51.232;9.420;2024-02-23T02:15:03;1.20;;;1.20;;
20699;SDS011;10511;51.232;9.420;2024-02-23T02:17:31;1.20;;;1.20;;
20699;SDS011;10511;51.232;9.420;2024-02-23T02:19:58;1.20;;;1.20;;
20699;SDS011;10511;51.232;9.420;2024-02-23T02:22:29;1.20;;;1.20;;
20699;SDS011;10511;51.232;9.420;2024-02-23T02:24:59;1.20;;;1.20;;
20699;SDS011;10511;51.232;9.420;2024-02-23T02:27:26;1.30;;;1.30;;
20699;SDS011;10511;51.232;9.420;2024-02-23T02:29:52;1.20;;;1.20;;
20699;SDS011;10511;51.232;9.420;2024-02-23T02:32:19;1.30;;;1.30;;
20699;SDS011;10511;51.232;9.420;2024-02-23T02:34:46;1.20;;;1.20;;
20699;SDS011;10511;51.232;9.420;2024-02-23T02:37:13;1.30;;;1.30;;
20699;SDS011;10511;51.232;9.420;2024-02-23T02:39:40;1.30;;;1.30;;
20699;SDS011;10511;51.232;9.420;2024-02-23T02:42:08;1.20;;;1.20;;
20699;SDS011;10511;51.232;9.420;2024-02-23T02:44:35;1.30;;;1.30;;
20699;SDS011;10511;51.232;9.420;2024-02-23T02:47:02;1.20;;;1.20;;
20699;SDS011;10511;51.232;9.420;2024-02-23T02:49:29;1.20;;;1.20;;
20699;SDS011;10511;51.232;9.420;2024-02-23T02:51:56;1.10;;;1.10;;
20699;SDS011;10511;51.232;9.420;2024-02-23T02:54:22;1.20;;;1.20;;
20699;SDS011;10511;51.232;9.420;2024-02-23T02:56:49;1.30;;;1.30;;
20699;SDS011;10511;51.232;9.420;2024-02-23T02:59:20;1.40;;;1.40;;
20699;SDS011;10511;51.232;9.420;2024-02-23T03:01:47;1.40;;;1.40;;
20699;SDS011;10511;51.232;9.420;2024-02-23T03:04:14;1.27;;;1.27;;
20699;SDS011;10511;51.232;9.420;2024-02-23T03:06:41;1.30;;;1.30;;
20699;SDS011;10511;51.232;9.420;2024-02-23T03:09:08;1.27;;;1.27;;
20699;SDS011;10511;51.232;9.420;2024-02-23T03:11:35;1.40;;;1.40;;
20699;SDS011;10511;51.232;9.420;2024-02-23T03:14:02;1.30;;;1.30;;
20699;SDS011;10511;51.232;9.420;2024-02-23T03:16:30;1.30;;;1.30;;
20699;SDS011;10511;51.232;9.420;2024-02-23T03:18:59;1.40;;;1.40;;
20699;SDS011;10511;51.232;9.420;2024-02-23T03:21:26;1.30;;;1.30;;
20699;SDS011;10511;51.232;9.420;2024-02-23T03:23:53;1.20;;;1.20;;
20699;SDS011;10511;51.232;9.420;2024-02-23T03:26:19;1.20;;;1.20;;
20699;SDS011;10511;51.232;9.420;2024-02-23T03:28:46;1.40;;;1.40;;
20699;SDS011;10511;51.232;9.420;2024-02-23T03:31:14;1.20;;;1.20;;
20699;SDS011;10511;51.232;9.420;2024-02-23T03:33:42;1.30;;;1.30;;
20699;SDS011;10511;51.232;9.420;2024-02-23T03:36:09;1.30;;;1.30;;
20699;SDS011;10511;51.232;9.420;2024-02-23T03:38:36;1.37;;;1.37;;
20699;SDS011;10511;51.232;9.420;2024-02-23T03:41:03;1.30;;;1.30;;
20699;SDS011;10511;51.232;9.420;2024-02-23T03:43:31;1.30;;;1.30;;
20699;SDS011;10511;51.232;9.420;2024-02-23T03:45:59;1.30;;;1.30;;
20699;SDS011;10511;51.232;9.420;2024-02-23T03:48:25;1.20;;;1.20;;
20699;SDS011;10511;51.232;9.420;2024-02-23T03:50:54;1.33;;;1.33;;
20699;SDS011;10511;51.232;9.420;2024-02-23T03:53:21;1.30;;;1.30;;
20699;SDS011;10511;51.232;9.420;2024-02-23T03:55:47;1.27;;;1.27;;
20699;SDS011;10511;51.232;9.420;2024-02-23T03:58:14;1.20;;;1.20;;
20699;SDS011;10511;51.232;9.420;2024-02-23T04:00:42;1.20;;;1.20;;
20699;SDS011;10511;51.232;9.420;2024-02-23T04:03:09;1.20;;;1.20;;
20699;SDS011;10511;51.232;9.420;2024-02-23T04:05:36;1.20;;;1.20;;
20699;SDS011;10511;51.232;9.420;2024-02-23T04:08:04;1.20;;;1.20;;
20699;SDS011;10511;51.232;9.420;2024-02-23T04:10:31;1.27;;;1.27;;
20699;SDS011;10511;51.232;9.420;2024-02-23T04:12:58;1.30;;;1.30;;
20699;SDS011;10511;51.232;9.420;2024-02-23T04:15:26;1.30;;;1.30;;
20699;SDS011;10511;51.232;9.420;2024-02-23T04:17:52;1.20;;;1.20;;
20699;SDS011;10511;51.232;9.420;2024-02-23T04:20:20;1.20;;;1.20;;
20699;SDS011;10511;51.232;9.420;2024-02-23T04:22:47;1.20;;;1.20;;
20699;SDS011;10511;51.232;9.420;2024-02-23T04:25:15;1.20;;;1.20;;
20699;SDS011;10511;51.232;9.420;2024-02-23T04:27:42;1.20;;;1.20;;
20699;SDS011;10511;51.232;9.420;2024-02-23T04:30:09;1.20;;;1.20;;
20699;SDS011;10511;51.232;9.420;2024-02-23T04:32:37;1.33;;;1.33;;
20699;SDS011;10511;51.232;9.420;2024-02-23T04:35:05;1.30;;;1.30;;
20699;SDS011;10511;51.232;9.420;2024-02-23T04:37:32;1.30;;;1.30;;
20699;SDS011;10511;51.232;9.420;2024-02-23T04:39:59;1.30;;;1.30;;
20699;SDS011;10511;51.232;9.420;2024-02-23T04:42:27;1.20;;;1.20;;
20699;SDS011;10511;51.232;9.420;2024-02-23T04:44:54;1.30;;;1.30;;
20699;SDS011;10511;51.232;9.420;2024-02-23T04:47:21;1.20;;;1.20;;
20699;SDS011;10511;51.232;9.420;2024-02-23T04:49:48;1.20;;;1.20;;
20699;SDS011;10511;51.232;9.420;2024-02-23T04:52:15;1.20;;;1.20;;
20699;SDS011;10511;51.232;9.420;2024-02-23T04:54:41;1.20;;;1.20;;
20699;SDS011;10511;51.232;9.420;2024-02-23T04:57:09;1.30;;;1.30;;
20699;SDS011;10511;51.232;9.420;2024-02-23T04:59:37;1.27;;;1.27;;
20699;SDS011;10511;51.232;9.420;2024-02-23T05:02:05;1.20;;;1.20;;
20699;SDS011;10511;51.232;9.420;2024-02-23T05:04:31;1.10;;;1.10;;
20699;SDS011;10511;51.232;9.420;2024-02-23T05:06:58;1.20;;;1.20;;
20699;SDS011;10511;51.232;9.420;2024-02-23T05:09:26;1.17;;;1.17;;
20699;SDS011;10511;51.232;9.420;2024-02-23T05:11:53;1.20;;;1.20;;
20699;SDS011;10511;51.232;9.420;2024-02-23T05:14:20;1.20;;;1.20;;
20699;SDS011;10511;51.232;9.420;2024-02-23T05:16:50;1.20;;;1.20;;
20699;SDS011;10511;51.232;9.420;2024-02-23T05:19:17;1.20;;;1.20;;
20699;SDS011;10511;51.232;9.420;2024-02-23T05:21:44;1.30;;;1.30;;
20699;SDS011;10511;51.232;9.420;2024-02-23T05:24:11;1.20;;;1.20;;
20699;SDS011;10511;51.232;9.420;2024-02-23T05:26:38;1.10;;;1.10;;
20699;SDS011;10511;51.232;9.420;2024-02-23T05:29:05;1.20;;;1.20;;
20699;SDS011;10511;51.232;9.420;2024-02-23T05:31:43;1.20;;;1.20;;
20699;SDS011;10511;51.232;9.420;2024-02-23T05:34:13;1.20;;;1.20;;
20699;SDS011;10511;51.232;9.420;2024-02-23T05:36:40;1.20;;;1.20;;
20699;SDS011;10511;51.232;9.420;2024-02-23T05:39:06;1.30;;;1.30;;
20699;SDS011;10511;51.232;9.420;2024-02-23T05:41:34;1.20;;;1.20;;
20699;SDS011;10511;51.232;9.420;2024-02-23T05:44:01;1.10;;;1.10;;
20699;SDS011;10511;51.232;9.420;2024-02-23T05:46:30;1.30;;;1.30;;
20699;SDS011;10511;51.232;9.420;2024-02-23T05:48:57;1.20;;;1.20;;
20699;SDS011;10511;51.232;9.420;2024-02-23T05:51:27;1.20;;;1.20;;
20699;SDS011;10511;51.232;9.420;2024-02-23T05:53:55;1.30;;;1.30;;
20699;SDS011;10511;51.232;9.420;2024-02-23T05:56:23;1.30;;;1.30;;
20699;SDS011;10511;51.232;9.420;2024-02-23T05:58:51;1.30;;;1.30;;
20699;SDS011;10511;51.232;9.420;2024-02-23T06:01:19;1.20;;;1.20;;
20699;SDS011;10511;51.232;9.420;2024-02-23T06:03:46;1.20;;;1.20;;
20699;SDS011;10511;51.232;9.420;2024-02-23T06:06:13;1.20;;;1.20;;
20699;SDS011;10511;51.232;9.420;2024-02-23T06:08:41;1.10;;;1.10;;
20699;SDS011;10511;51.232;9.420;2024-02-23T06:11:09;1.20;;;1.20;;
20699;SDS011;10511;51.232;9.420;2024-02-23T06:13:36;1.20;;;1.20;;
20699;SDS011;10511;51.232;9.420;2024-02-23T06:16:02;1.30;;;1.30;;
20699;SDS011;10511;51.232;9.420;2024-02-23T06:18:30;1.20;;;1.20;;
20699;SDS011;10511;51.232;9.420;2024-02-23T06:20:56;1.20;;;1.20;;
20699;SDS011;10511;51.232;9.420;2024-02-23T06:23:23;1.20;;;1.20;;
20699;SDS011;10511;51.232;9.420;2024-02-23T06:25:51;1.20;;;1.20;;
20699;SDS011;10511;51.232;9.420;2024-02-23T06:28:18;1.30;;;1.30;;
20699;SDS011;10511;51.232;9.420;2024-02-23T06:30:45;1.10;;;1.10;;
20699;SDS011;10511;51.232;9.420;2024-02-23T06:33:12;1.30;;;1.30;;
20699;SDS011;10511;51.232;9.420;2024-02-23T06:35:39;1.20;;;1.20;;
20699;SDS011;10511;51.232;9.420;2024-02-23T06:38:05;1.40;;;1.40;;
20699;SDS011;10511;51.232;9.420;2024-02-23T06:40:32;1.30;;;1.30;;
20699;SDS011;10511;51.232;9.420;2024-02-23T06:43:00;1.20;;;1.20;;
20699;SDS011;10511;51.232;9.420;2024-02-23T06:45:27;1.20;;;1.20;;
20699;SDS011;10511;51.232;9.420;2024-02-23T06:47:54;1.20;;;1.20;;
20699;SDS011;10511;51.232;9.420;2024-02-23T06:50:21;1.20;;;1.20;;
20699;SDS011;10511;51.232;9.420;2024-02-23T06:52:48;1.30;;;1.30;;
20699;SDS011;10511;51.232;9.420;2024-02-23T06:55:15;1.20;;;1.20;;
20699;SDS011;10511;51.232;9.420;2024-02-23T06:57:42;1.27;;;1.27;;
20699;SDS011;10511;51.232;9.420;2024-02-23T07:00:11;1.20;;;1.20;;
20699;SDS011;10511;51.232;9.420;2024-02-23T07:02:38;1.20;;;1.20;;
20699;SDS011;10511;51.232;9.420;2024-02-23T07:05:05;1.20;;;1.20;;
20699;SDS011;10511;51.232;9.420;2024-02-23T07:07:34;1.30;;;1.30;;
20699;SDS011;10511;51.232;9.420;2024-02-23T07:10:01;1.20;;;1.20;;
20699;SDS011;10511;51.232;9.420;2024-02-23T07:12:28;1.20;;;1.20;;
20699;SDS011;10511;51.232;9.420;2024-02-23T07:14:55;1.30;;;1.30;;
20699;SDS011;10511;51.232;9.420;2024-02-23T07:17:23;1.40;;;1.40;;
20699;SDS011;10511;51.232;9.420;2024-02-23T07:19:50;1.30;;;1.30;;
20699;SDS011;10511;51.232;9.420;2024-02-23T07:22:18;1.20;;;1.20;;
20699;SDS011;10511;51.232;9.420;2024-02-23T07:24:45;1.20;;;1.20;;
20699;SDS011;10511;51.232;9.420;2024-02-23T07:27:12;1.30;;;1.30;;
20699;SDS011;10511;51.232;9.420;2024-02-23T07:29:39;1.20;;;1.20;;
20699;SDS011;10511;51.232;9.420;2024-02-23T07:32:06;1.20;;;1.20;;
20699;SDS011;10511;51.232;9.420;2024-02-23T07:34:34;1.20;;;1.20;;
20699;SDS011;10511;51.232;9.420;2024-02-23T07:37:01;1.20;;;1.20;;
20699;SDS011;10511;51.232;9.420;2024-02-23T07:39:29;1.20;;;1.20;;
20699;SDS011;10511;51.232;9.420;2024-02-23T07:41:56;1.20;;;1.20;;
20699;SDS011;10511;51.232;9.420;2024-02-23T07:44:22;1.30;;;1.30;;
20699;SDS011;10511;51.232;9.420;2024-02-23T07:46:50;1.20;;;1.20;;
20699;SDS011;10511;51.232;9.420;2024-02-23T07:49:17;1.20;;;1.20;;
20699;SDS011;10511;51.232;9.420;2024-02-23T07:51:46;1.20;;;1.20;;
20699;SDS011;10511;51.232;9.420;2024-02-23T07:54:13;1.20;;;1.20;;
20699;SDS011;10511;51.232;9.420;2024-02-23T07:56:40;1.20;;;1.20;;
20699;SDS011;10511;51.232;9.420;2024-02-23T07:59:07;1.20;;;1.20;;
20699;SDS011;10511;51.232;9.420;2024-02-23T08:01:34;1.20;;;1.20;;
20699;SDS011;10511;51.232;9.420;2024-02-23T08:04:01;1.20;;;1.20;;
20699;SDS011;10511;51.232;9.420;2024-02-23T08:06:28;1.10;;;1.10;;
20699;SDS011;10511;51.232;9.420;2024-02-23T08:08:57;1.20;;;1.20;;
20699;SDS011;10511;51.232;9.420;2024-02-23T08:11:24;1.20;;;1.20;;
20699;SDS011;10511;51.232;9.420;2024-02-23T08:13:51;1.10;;;1.10;;
20699;SDS011;10511;51.232;9.420;2024-02-23T08:16:18;1.10;;;1.10;;
20699;SDS011;10511;51.232;9.420;2024-02-23T08:18:44;1.10;;;1.10;;
20699;SDS011;10511;51.232;9.420;2024-02-23T08:21:11;1.10;;;1.10;;
20699;SDS011;10511;51.232;9.420;2024-02-23T08:23:38;1.20;;;1.20;;
20699;SDS011;10511;51.232;9.420;2024-02-23T08:26:07;1.30;;;1.30;;
20699;SDS011;10511;51.232;9.420;2024-02-23T08:28:35;1.20;;;1.20;;
20699;SDS011;10511;51.232;9.420;2024-02-23T08:31:02;1.17;;;1.17;;
20699;SDS011;10511;51.232;9.420;2024-02-23T08:33:30;1.30;;;1.30;;
20699;SDS011;10511;51.232;9.420;2024-02-23T08:35:57;1.20;;;1.20;;
20699;SDS011;10511;51.232;9.420;2024-02-23T08:38:23;1.10;;;1.10;;
20699;SDS011;10511;51.232;9.420;2024-02-23T08:40:50;1.13;;;1.13;;
20699;SDS011;10511;51.232;9.420;2024-02-23T08:43:18;1.30;;;1.30;;
20699;SDS011;10511;51.232;9.420;2024-02-23T08:45:46;1.27;;;1.27;;
20699;SDS011;10511;51.232;9.420;2024-02-23T08:48:13;1.10;;;1.10;;
20699;SDS011;10511;51.232;9.420;2024-02-23T08:50:41;1.20;;;1.20;;
20699;SDS011;10511;51.232;9.420;2024-02-23T08:53:07;1.10;;;1.10;;
20699;SDS011;10511;51.232;9.420;2024-02-23T08:55:34;1.20;;;1.20;;
20699;SDS011;10511;51.232;9.420;2024-02-23T08:58:01;1.20;;;1.20;;
20699;SDS011;10511;51.232;9.420;2024-02-23T09:00:29;1.30;;;1.30;;
20699;SDS011;10511;51.232;9.420;2024-02-23T09:02:56;1.10;;;1.10;;
20699;SDS011;10511;51.232;9.420;2024-02-23T09:05:23;1.20;;;1.20;;
20699;SDS011;10511;51.232;9.420;2024-02-23T09:07:50;1.23;;;1.23;;
20699;SDS011;10511;51.232;9.420;2024-02-23T09:10:17;1.30;;;1.30;;
20699;SDS011;10511;51.232;9.420;2024-02-23T09:12:44;1.20;;;1.20;;
20699;SDS011;10511;51.232;9.420;2024-02-23T09:15:11;1.13;;;1.13;;
20699;SDS011;10511;51.232;9.420;2024-02-23T09:17:41;1.20;;;1.20;;
20699;SDS011;10511;51.232;9.420;2024-02-23T09:20:08;1.10;;;1.10;;
20699;SDS011;10511;51.232;9.420;2024-02-23T09:22:36;1.20;;;1.20;;
20699;SDS011;10511;51.232;9.420;2024-02-23T09:25:03;1.10;;;1.10;;
20699;SDS011;10511;51.232;9.420;2024-02-23T09:27:30;1.10;;;1.10;;
20699;SDS011;10511;51.232;9.420;2024-02-23T09:29:57;1.10;;;1.10;;
20699;SDS011;10511;51.232;9.420;2024-02-23T09:32:24;1.10;;;1.10;;
20699;SDS011;10511;51.232;9.420;2024-02-23T09:34:52;1.13;;;1.13;;
20699;SDS011;10511;51.232;9.420;2024-02-23T09:37:19;1.10;;;1.10;;
20699;SDS011;10511;51.232;9.420;2024-02-23T09:39:46;1.10;;;1.10;;
20699;SDS011;10511;51.232;9.420;2024-02-23T09:42:13;1.10;;;1.10;;
20699;SDS011;10511;51.232;9.420;2024-02-23T09:44:41;1.10;;;1.10;;
20699;SDS011;10511;51.232;9.420;2024-02-23T09:47:10;1.10;;;1.10;;
20699;SDS011;10511;51.232;9.420;2024-02-23T09:49:39;1.10;;;1.10;;
20699;SDS011;10511;51.232;9.420;2024-02-23T09:52:09;1.10;;;1.10;;
20699;SDS011;10511;51.232;9.420;2024-02-23T09:54:36;1.10;;;1.10;;
20699;SDS011;10511;51.232;9.420;2024-02-23T09:57:06;1.17;;;1.17;;
20699;SDS011;10511;51.232;9.420;2024-02-23T09:59:34;1.10;;;1.10;;
20699;SDS011;10511;51.232;9.420;2024-02-23T10:02:01;1.10;;;1.10;;
20699;SDS011;10511;51.232;9.420;2024-02-23T10:04:31;1.10;;;1.10;;
20699;SDS011;10511;51.232;9.420;2024-02-23T10:06:58;1.10;;;1.10;;
20699;SDS011;10511;51.232;9.420;2024-02-23T10:09:26;1.10;;;1.10;;
20699;SDS011;10511;51.232;9.420;2024-02-23T10:11:54;1.17;;;1.17;;
20699;SDS011;10511;51.232;9.420;2024-02-23T10:14:21;1.10;;;1.10;;
20699;SDS011;10511;51.232;9.420;2024-02-23T10:16:48;1.10;;;1.10;;
20699;SDS011;10511;51.232;9.420;2024-02-23T10:19:18;1.10;;;1.10;;
20699;SDS011;10511;51.232;9.420;2024-02-23T10:21:45;1.10;;;1.10;;
20699;SDS011;10511;51.232;9.420;2024-02-23T10:24:12;1.10;;;1.10;;
20699;SDS011;10511;51.232;9.420;2024-02-23T10:26:40;1.10;;;1.10;;
20699;SDS011;10511;51.232;9.420;2024-02-23T10:29:07;1.10;;;1.10;;
20699;SDS011;10511;51.232;9.420;2024-02-23T10:31:35;1.10;;;1.10;;
20699;SDS011;10511;51.232;9.420;2024-02-23T10:34:03;1.10;;;1.10;;
20699;SDS011;10511;51.232;9.420;2024-02-23T10:36:36;1.20;;;1.20;;
20699;SDS011;10511;51.232;9.420;2024-02-23T10:39:07;1.00;;;1.00;;
20699;SDS011;10511;51.232;9.420;2024-02-23T10:41:35;1.10;;;1.10;;
20699;SDS011;10511;51.232;9.420;2024-02-23T10:44:04;1.10;;;1.10;;
20699;SDS011;10511;51.232;9.420;2024-02-23T10:46:33;1.10;;;1.10;;
20699;SDS011;10511;51.232;9.420;2024-02-23T10:49:00;1.30;;;1.30;;
20699;SDS011;10511;51.232;9.420;2024-02-23T10:51:27;1.20;;;1.20;;
20699;SDS011;10511;51.232;9.420;2024-02-23T10:53:55;1.10;;;1.10;;
20699;SDS011;10511;51.232;9.420;2024-02-23T10:56:23;1.20;;;1.20;;
20699;SDS011;10511;51.232;9.420;2024-02-23T10:58:51;1.10;;;1.10;;
20699;SDS011;10511;51.232;9.420;2024-02-23T11:01:19;1.10;;;1.10;;
20699;SDS011;10511;51.232;9.420;2024-02-23T11:03:48;1.10;;;1.10;;
20699;SDS011;10511;51.232;9.420;2024-02-23T11:06:16;1.10;;;1.10;;
20699;SDS011;10511;51.232;9.420;2024-02-23T11:08:46;1.10;;;1.10;;
20699;SDS011;10511;51.232;9.420;2024-02-23T11:11:15;1.00;;;1.00;;
20699;SDS011;10511;51.232;9.420;2024-02-23T11:13:43;1.10;;;1.10;;
20699;SDS011;10511;51.232;9.420;2024-02-23T11:16:12;1.10;;;1.10;;
20699;SDS011;10511;51.232;9.420;2024-02-23T11:18:49;1.20;;;1.20;;
20699;SDS011;10511;51.232;9.420;2024-02-23T11:21:33;1.10;;;1.10;;
20699;SDS011;10511;51.232;9.420;2024-02-23T11:24:01;1.10;;;1.10;;
20699;SDS011;10511;51.232;9.420;2024-02-23T11:26:29;1.10;;;1.10;;
20699;SDS011;10511;51.232;9.420;2024-02-23T11:28:57;1.00;;;1.00;;
20699;SDS011;10511;51.232;9.420;2024-02-23T11:31:29;1.00;;;1.00;;
20699;SDS011;10511;51.232;9.420;2024-02-23T11:33:57;1.10;;;1.10;;
20699;SDS011;10511;51.232;9.420;2024-02-23T11:36:25;1.10;;;1.10;;
20699;SDS011;10511;51.232;9.420;2024-02-23T11:38:56;1.10;;;1.10;;
20699;SDS011;10511;51.232;9.420;2024-02-23T11:41:24;1.00;;;1.00;;
20699;SDS011;10511;51.232;9.420;2024-02-23T11:43:51;1.10;;;1.10;;
20699;SDS011;10511;51.232;9.420;2024-02-23T11:46:20;1.00;;;1.00;;
20699;SDS011;10511;51.232;9.420;2024-02-23T11:48:49;1.00;;;1.00;;
20699;SDS011;10511;51.232;9.420;2024-02-23T11:51:18;1.00;;;1.00;;
20699;SDS011;10511;51.232;9.420;2024-02-23T11:53:46;1.07;;;1.07;;
20699;SDS011;10511;51.232;9.420;2024-02-23T11:56:13;1.00;;;1.00;;
20699;SDS011;10511;51.232;9.420;2024-02-23T11:58:41;1.00;;;1.00;;
20699;SDS011;10511;51.232;9.420;2024-02-23T12:01:08;1.10;;;1.10;;
20699;SDS011;10511;51.232;9.420;2024-02-23T12:03:35;1.00;;;1.00;;
20699;SDS011;10511;51.232;9.420;2024-02-23T12:06:05;1.07;;;1.07;;
20699;SDS011;10511;51.232;9.420;2024-02-23T12:08:34;0.90;;;0.90;;
20699;SDS011;10511;51.232;9.420;2024-02-23T12:11:03;1.00;;;1.00;;
20699;SDS011;10511;51.232;9.420;2024-02-23T12:13:32;1.00;;;1.00;;
20699;SDS011;10511;51.232;9.420;2024-02-23T12:15:59;1.00;;;1.00;;
20699;SDS011;10511;51.232;9.420;2024-02-23T12:18:27;1.00;;;1.00;;
20699;SDS011;10511;51.232;9.420;2024-02-23T12:20:58;1.00;;;1.00;;
20699;SDS011;10511;51.232;9.420;2024-02-23T12:23:37;1.00;;;1.00;;
20699;SDS011;10511;51.232;9.420;2024-02-23T12:26:05;1.00;;;1.00;;
20699;SDS011;10511;51.232;9.420;2024-02-23T12:28:32;1.00;;;1.00;;
20699;SDS011;10511;51.232;9.420;2024-02-23T12:30:59;1.00;;;1.00;;
20699;SDS011;10511;51.232;9.420;2024-02-23T12:33:27;1.07;;;1.07;;
20699;SDS011;10511;51.232;9.420;2024-02-23T12:35:55;1.00;;;1.00;;
20699;SDS011;10511;51.232;9.420;2024-02-23T12:38:22;1.00;;;1.00;;
20699;SDS011;10511;51.232;9.420;2024-02-23T12:40:50;0.93;;;0.93;;
20699;SDS011;10511;51.232;9.420;2024-02-23T12:43:18;1.07;;;1.07;;
20699;SDS011;10511;51.232;9.420;2024-02-23T12:45:46;1.00;;;1.00;;
20699;SDS011;10511;51.232;9.420;2024-02-23T12:48:15;0.90;;;0.90;;
20699;SDS011;10511;51.232;9.420;2024-02-23T12:50:42;0.90;;;0.90;;
20699;SDS011;10511;51.232;9.420;2024-02-23T12:53:09;1.00;;;1.00;;
20699;SDS011;10511;51.232;9.420;2024-02-23T12:55:37;1.00;;;1.00;;
20699;SDS011;10511;51.232;9.420;2024-02-23T12:58:06;1.00;;;1.00;;
20699;SDS011;10511;51.232;9.420;2024-02-23T13:00:32;1.00;;;1.00;;
20699;SDS011;10511;51.232;9.420;2024-02-23T13:02:59;1.00;;;1.00;;
20699;SDS011;10511;51.232;9.420;2024-02-23T13:05:26;0.90;;;0.90;;
20699;SDS011;10511;51.232;9.420;2024-02-23T13:07:53;1.00;;;1.00;;
20699;SDS011;10511;51.232;9.420;2024-02-23T13:10:19;1.00;;;1.00;;
20699;SDS011;10511;51.232;9.420;2024-02-23T13:12:46;1.00;;;1.00;;
20699;SDS011;10511;51.232;9.420;2024-02-23T13:15:16;1.00;;;1.00;;
20699;SDS011;10511;51.232;9.420;2024-02-23T13:17:43;1.00;;;1.00;;
20699;SDS011;10511;51.232;9.420;2024-02-23T13:20:10;1.00;;;1.00;;
20699;SDS011;10511;51.232;9.420;2024-02-23T13:22:38;0.97;;;0.97;;
20699;SDS011;10511;51.232;9.420;2024-02-23T13:25:05;0.90;;;0.90;;
20699;SDS011;10511;51.232;9.420;2024-02-23T13:27:33;0.97;;;0.97;;
20699;SDS011;10511;51.232;9.420;2024-02-23T13:29:59;1.00;;;1.00;;
20699;SDS011;10511;51.232;9.420;2024-02-23T13:32:27;1.00;;;1.00;;
20699;SDS011;10511;51.232;9.420;2024-02-23T13:34:54;1.00;;;1.00;;
20699;SDS011;10511;51.232;9.420;2024-02-23T13:37:21;0.90;;;0.90;;
20699;SDS011;10511;51.232;9.420;2024-02-23T13:39:48;1.00;;;1.00;;
20699;SDS011;10511;51.232;9.420;2024-02-23T13:42:16;0.90;;;0.90;;
20699;SDS011;10511;51.232;9.420;2024-02-23T13:44:42;1.00;;;1.00;;
20699;SDS011;10511;51.232;9.420;2024-02-23T13:47:11;1.00;;;1.00;;
20699;SDS011;10511;51.232;9.420;2024-02-23T13:49:39;1.00;;;1.00;;
20699;SDS011;10511;51.232;9.420;2024-02-23T13:52:06;1.00;;;1.00;;
20699;SDS011;10511;51.232;9.420;2024-02-23T13:54:33;1.10;;;1.10;;
20699;SDS011;10511;51.232;9.420;2024-02-23T13:57:00;1.00;;;1.00;;
20699;SDS011;10511;51.232;9.420;2024-02-23T13:59:27;1.00;;;1.00;;
20699;SDS011;10511;51.232;9.420;2024-02-23T14:01:54;1.10;;;1.10;;
20699;SDS011;10511;51.232;9.420;2024-02-23T14:04:21;0.90;;;0.90;;
20699;SDS011;10511;51.232;9.420;2024-02-23T14:06:49;1.00;;;1.00;;
20699;SDS011;10511;51.232;9.420;2024-02-23T14:09:16;1.00;;;1.00;;
20699;SDS011;10511;51.232;9.420;2024-02-23T14:11:43;1.10;;;1.10;;
20699;SDS011;10511;51.232;9.420;2024-02-23T14:14:10;1.10;;;1.10;;
20699;SDS011;10511;51.232;9.420;2024-02-23T14:16:38;1.03;;;1.03;;
20699;SDS011;10511;51.232;9.420;2024-02-23T14:19:05;1.10;;;1.10;;
20699;SDS011;10511;51.232;9.420;2024-02-23T14:21:32;1.00;;;1.00;;
20699;SDS011;10511;51.232;9.420;2024-02-23T14:24:01;1.00;;;1.00;;
20699;SDS011;10511;51.232;9.420;2024-02-23T14:26:29;1.00;;;1.00;;
20699;SDS011;10511;51.232;9.420;2024-02-23T14:28:56;1.00;;;1.00;;
20699;SDS011;10511;51.232;9.420;2024-02-23T14:31:25;1.10;;;1.10;;
20699;SDS011;10511;51.232;9.420;2024-02-23T14:33:57;1.10;;;1.10;;
20699;SDS011;10511;51.232;9.420;2024-02-23T14:36:24;1.00;;;1.00;;
20699;SDS011;10511;51.232;9.420;2024-02-23T14:38:51;1.00;;;1.00;;
20699;SDS011;10511;51.232;9.420;2024-02-23T14:41:20;1.10;;;1.10;;
20699;SDS011;10511;51.232;9.420;2024-02-23T14:43:48;1.00;;;1.00;;
20699;SDS011;10511;51.232;9.420;2024-02-23T14:46:14;1.10;;;1.10;;
20699;SDS011;10511;51.232;9.420;2024-02-23T14:48:41;1.00;;;1.00;;
20699;SDS011;10511;51.232;9.420;2024-02-23T14:51:08;1.00;;;1.00;;